sensor_id;sensor_type;location;lat;lon;timestamp;pressure;altitude;pressure_sealevel;temperature;humidity
48154;BME280;33942;49.272;14.452;2022-07-29T10:45:59;97068.26;;;29.17;39.88
48154;BME280;33942;49.272;14.452;2022-07-29T10:48:26;97063.53;;;31.01;35.26
48154;BME280;33942;49.272;14.452;2022-07-29T10:50:56;97064.30;;;33.41;34.45
48154;BME280;33942;49.272;14.452;2022-07-29T10:53:25;97059.41;;;34.08;32.99
48154;BME280;33942;49.272;14.452;2022-07-29T10:56:23;97054.62;;;35.03;32.04
48154;BME280;33942;49.272;14.452;2022-07-29T10:59:23;97054.28;;;35.90;29.84
48154;BME280;33942;49.272;14.452;2022-07-29T11:01:51;97055.16;;;36.60;26.00
48154;BME280;33942;49.272;14.452;2022-07-29T11:04:59;97050.64;;;36.61;26.55
48154;BME280;33942;49.272;14.452;2022-07-29T11:07:27;97049.34;;;37.47;25.27
48154;BME280;33942;49.272;14.452;2022-07-29T11:10:28;97049.14;;;37.64;25.81
48154;BME280;33942;49.272;14.452;2022-07-29T11:12:55;97049.40;;;37.87;25.24
48154;BME280;33942;49.272;14.452;2022-07-29T11:15:22;97047.63;;;37.76;25.55
48154;BME280;33942;49.272;14.452;2022-07-29T11:18:06;97046.83;;;37.48;25.86
48154;BME280;33942;49.272;14.452;2022-07-29T11:20:36;97048.26;;;37.34;26.07
48154;BME280;33942;49.272;14.452;2022-07-29T11:23:23;97045.52;;;37.21;26.00
48154;BME280;33942;49.272;14.452;2022-07-29T11:26:23;97051.79;;;37.65;25.71
48154;BME280;33942;49.272;14.452;2022-07-29T11:28:56;97053.92;;;38.15;24.55
48154;BME280;33942;49.272;14.452;2022-07-29T11:31:36;97054.11;;;38.08;24.74
48154;BME280;33942;49.272;14.452;2022-07-29T11:34:37;97052.09;;;38.20;23.97
48154;BME280;33942;49.272;14.452;2022-07-29T11:37:22;97055.52;;;38.72;24.44
48154;BME280;33942;49.272;14.452;2022-07-29T11:40:21;97054.06;;;38.68;24.19
48154;BME280;33942;49.272;14.452;2022-07-29T11:42:49;97048.81;;;38.85;24.45
48154;BME280;33942;49.272;14.452;2022-07-29T11:45:20;97043.39;;;39.19;23.85
48154;BME280;33942;49.272;14.452;2022-07-29T11:47:49;97035.39;;;39.32;23.94
48154;BME280;33942;49.272;14.452;2022-07-29T11:50:28;97034.17;;;39.04;23.89
48154;BME280;33942;49.272;14.452;2022-07-29T11:52:56;97030.94;;;39.24;23.42
48154;BME280;33942;49.272;14.452;2022-07-29T11:55:24;97024.66;;;39.23;22.53
48154;BME280;33942;49.272;14.452;2022-07-29T11:57:54;97024.46;;;39.23;23.18
48154;BME280;33942;49.272;14.452;2022-07-29T12:00:25;97022.07;;;39.38;22.95
48154;BME280;33942;49.272;14.452;2022-07-29T12:02:53;97015.95;;;39.24;22.12
48154;BME280;33942;49.272;14.452;2022-07-29T12:05:29;97007.45;;;39.29;23.34
48154;BME280;33942;49.272;14.452;2022-07-29T12:08:04;97002.03;;;39.84;24.01
48154;BME280;33942;49.272;14.452;2022-07-29T12:10:32;96995.36;;;39.06;23.87
48154;BME280;33942;49.272;14.452;2022-07-29T12:12:59;96993.68;;;39.34;23.72
48154;BME280;33942;49.272;14.452;2022-07-29T12:15:27;96993.81;;;39.19;23.61
48154;BME280;33942;49.272;14.452;2022-07-29T12:17:54;96993.75;;;39.10;23.67
48154;BME280;33942;49.272;14.452;2022-07-29T12:20:23;96990.58;;;39.14;23.59
48154;BME280;33942;49.272;14.452;2022-07-29T12:22:52;96990.54;;;39.36;22.85
48154;BME280;33942;49.272;14.452;2022-07-29T12:25:20;96993.39;;;39.16;23.72
48154;BME280;33942;49.272;14.452;2022-07-29T12:27:47;96996.17;;;39.08;23.30
48154;BME280;33942;49.272;14.452;2022-07-29T12:30:16;96989.45;;;39.14;23.74
48154;BME280;33942;49.272;14.452;2022-07-29T12:32:45;96983.68;;;39.26;22.58
48154;BME280;33942;49.272;14.452;2022-07-29T12:35:15;96981.30;;;38.93;23.81
48154;BME280;33942;49.272;14.452;2022-07-29T12:37:46;96981.67;;;38.75;22.69
48154;BME280;33942;49.272;14.452;2022-07-29T12:40:15;96980.16;;;38.76;23.65
48154;BME280;33942;49.272;14.452;2022-07-29T12:43:06;96983.31;;;38.23;23.79
48154;BME280;33942;49.272;14.452;2022-07-29T12:45:33;96980.93;;;38.25;23.55
48154;BME280;33942;49.272;14.452;2022-07-29T12:48:00;96980.42;;;37.94;24.02
48154;BME280;33942;49.272;14.452;2022-07-29T12:50:28;96985.19;;;38.33;23.92
48154;BME280;33942;49.272;14.452;2022-07-29T12:53:08;96989.65;;;37.82;24.68
48154;BME280;33942;49.272;14.452;2022-07-29T12:55:42;96986.77;;;37.40;24.72
48154;BME280;33942;49.272;14.452;2022-07-29T12:58:09;96986.25;;;37.40;25.28
48154;BME280;33942;49.272;14.452;2022-07-29T13:00:37;96984.21;;;37.01;25.57
48154;BME280;33942;49.272;14.452;2022-07-29T13:03:04;96985.90;;;36.97;25.28
48154;BME280;33942;49.272;14.452;2022-07-29T13:05:41;96982.96;;;37.03;25.03
48154;BME280;33942;49.272;14.452;2022-07-29T13:08:11;96986.39;;;36.71;26.32
48154;BME280;33942;49.272;14.452;2022-07-29T13:10:39;96985.18;;;36.22;25.95
48154;BME280;33942;49.272;14.452;2022-07-29T13:13:08;96985.88;;;36.46;27.08
48154;BME280;33942;49.272;14.452;2022-07-29T13:15:36;96988.62;;;36.27;26.67
48154;BME280;33942;49.272;14.452;2022-07-29T13:18:05;96994.78;;;35.90;27.78
48154;BME280;33942;49.272;14.452;2022-07-29T13:20:32;96993.17;;;36.09;28.93
48154;BME280;33942;49.272;14.452;2022-07-29T13:23:00;96994.37;;;35.67;27.18
48154;BME280;33942;49.272;14.452;2022-07-29T13:25:30;96989.93;;;34.93;28.01
48154;BME280;33942;49.272;14.452;2022-07-29T13:27:57;96981.12;;;35.13;28.92
48154;BME280;33942;49.272;14.452;2022-07-29T13:30:25;96976.40;;;34.87;28.07
48154;BME280;33942;49.272;14.452;2022-07-29T13:32:53;96969.37;;;34.99;28.54
48154;BME280;33942;49.272;14.452;2022-07-29T13:35:20;96968.12;;;34.89;28.38
48154;BME280;33942;49.272;14.452;2022-07-29T13:37:47;96963.00;;;35.04;29.37
48154;BME280;33942;49.272;14.452;2022-07-29T13:40:15;96962.77;;;35.43;28.60
48154;BME280;33942;49.272;14.452;2022-07-29T13:42:43;96958.50;;;35.20;27.74
48154;BME280;33942;49.272;14.452;2022-07-29T13:45:11;96956.37;;;35.45;27.30
48154;BME280;33942;49.272;14.452;2022-07-29T13:47:38;96957.61;;;35.59;28.91
48154;BME280;33942;49.272;14.452;2022-07-29T13:50:08;96954.73;;;35.67;26.90
48154;BME280;33942;49.272;14.452;2022-07-29T13:52:35;96949.45;;;35.94;28.22
48154;BME280;33942;49.272;14.452;2022-07-29T13:55:03;96947.51;;;36.43;27.44
